Time;durP1;ratioP1;P1;durP2;ratioP2;P2;SDS_P1;SDS_P2;PMS_P1;PMS_P2;Temp;Humidity;BMP_temperature;BMP_pressure;BME280_temperature;BME280_humidity;BME280_pressure;Samples;Min_cycle;Max_cycle;Signal;HPM_P1;HPM_P2
2021/11/03 00:02:19;;;;;;;6.37;3.90;;;;;;;;;;10501997;28;20036;-79
2021/11/03 00:07:20;;;;;;;7.38;3.83;;;;;;;;;;10501710;28;21001;-79
2021/11/03 00:12:20;;;;;;;12.30;3.90;;;;;;;;;;10501749;28;20039;-81
2021/11/03 00:17:20;;;;;;;9.43;4.37;;;;;;;;;;10502606;28;20438;-81
2021/11/03 00:22:21;;;;;;;8.77;4.47;;;;;;;;;;10501741;28;20508;-81
2021/11/03 00:27:21;;;;;;;7.88;4.30;;;;;;;;;;10501291;28;20445;-81
2021/11/03 00:32:21;;;;;;;6.23;3.93;;;;;;;;;;10501026;28;20070;-81
2021/11/03 00:37:22;;;;;;;5.63;3.67;;;;;;;;;;10501172;28;20468;-81
2021/11/03 00:42:22;;;;;;;4.33;3.93;;;;;;;;;;10501198;28;20854;-81
2021/11/03 00:47:23;;;;;;;6.28;4.03;;;;;;;;;;10499976;28;20477;-81
2021/11/03 00:52:23;;;;;;;8.30;3.90;;;;;;;;;;10499928;28;20111;-81
2021/11/03 00:57:24;;;;;;;8.13;4.07;;;;;;;;;;10501248;28;21035;-81
2021/11/03 01:02:24;;;;;;;6.17;3.87;;;;;;;;;;10501708;28;20458;-81
2021/11/03 01:07:25;;;;;;;8.15;3.58;;;;;;;;;;10500645;28;20442;-81
2021/11/03 01:12:25;;;;;;;7.97;3.93;;;;;;;;;;10499511;28;20028;-82
2021/11/03 01:17:25;;;;;;;6.70;3.57;;;;;;;;;;10499171;28;20442;-82
2021/11/03 01:22:26;;;;;;;6.17;3.70;;;;;;;;;;10499058;28;20099;-81
2021/11/03 01:27:26;;;;;;;5.40;4.00;;;;;;;;;;10498490;28;21070;-82
2021/11/03 01:32:26;;;;;;;6.93;3.90;;;;;;;;;;10498531;28;20461;-82
2021/11/03 01:37:27;;;;;;;6.40;3.60;;;;;;;;;;10497517;28;20457;-82
2021/11/03 01:42:27;;;;;;;7.63;3.03;;;;;;;;;;10498292;28;20111;-82
2021/11/03 01:47:43;;;;;;;4.40;3.00;;;;;;;;;;10498580;28;20044;-82
2021/11/03 01:52:45;;;;;;;8.07;3.90;;;;;;;;;;10498260;28;20035;-82
2021/11/03 01:57:53;;;;;;;5.47;3.72;;;;;;;;;;10491204;28;20029;-83
2021/11/03 02:02:59;;;;;;;6.65;3.70;;;;;;;;;;10490393;28;20028;-82
2021/11/03 02:08:00;;;;;;;5.85;3.55;;;;;;;;;;10496994;28;20029;-82
2021/11/03 02:13:01;;;;;;;6.38;3.67;;;;;;;;;;10498009;28;20032;-82
2021/11/03 02:18:01;;;;;;;6.65;3.35;;;;;;;;;;10496869;28;20044;-82
2021/11/03 02:23:05;;;;;;;5.10;2.97;;;;;;;;;;10496631;28;20025;-82
2021/11/03 02:28:06;;;;;;;10.40;3.78;;;;;;;;;;10497838;28;20813;-81
2021/11/03 02:33:10;;;;;;;6.00;3.70;;;;;;;;;;10498066;28;20085;-80
2021/11/03 02:38:19;;;;;;;5.25;3.10;;;;;;;;;;10496994;28;20359;-81
2021/11/03 02:43:27;;;;;;;;;;;;;;;;;;10497447;28;20041;-81
2021/11/03 02:48:31;;;;;;;3.25;2.95;;;;;;;;;;10500033;28;20006;-81
2021/11/03 02:53:34;;;;;;;4.65;3.10;;;;;;;;;;10506352;28;20037;-81
2021/11/03 02:58:37;;;;;;;5.13;3.10;;;;;;;;;;10505249;28;20102;-81
2021/11/03 03:03:37;;;;;;;4.28;2.80;;;;;;;;;;10505502;28;20119;-81
2021/11/03 03:08:38;;;;;;;4.50;3.22;;;;;;;;;;10504863;28;20373;-81
2021/11/03 03:13:39;;;;;;;3.57;2.53;;;;;;;;;;10504175;28;20458;-81
2021/11/03 03:18:39;;;;;;;3.55;2.97;;;;;;;;;;10503663;28;20070;-81
2021/11/03 03:23:40;;;;;;;3.53;2.73;;;;;;;;;;10504248;28;20078;-81
2021/11/03 03:28:41;;;;;;;6.05;3.10;;;;;;;;;;10490101;28;20024;-81
2021/11/03 03:33:42;;;;;;;3.03;2.72;;;;;;;;;;10503275;28;20111;-81
2021/11/03 03:38:43;;;;;;;4.18;2.65;;;;;;;;;;10503686;28;20038;-81
2021/11/03 03:43:44;;;;;;;3.83;2.90;;;;;;;;;;10503471;28;20028;-81
2021/11/03 03:48:44;;;;;;;4.68;2.92;;;;;;;;;;10503840;28;20024;-81
2021/11/03 03:53:46;;;;;;;4.63;3.00;;;;;;;;;;10502897;28;20017;-81
2021/11/03 03:58:48;;;;;;;3.78;2.80;;;;;;;;;;10502211;28;20032;-82
2021/11/03 04:03:49;;;;;;;3.63;2.67;;;;;;;;;;10502837;28;20024;-82
2021/11/03 04:08:49;;;;;;;3.57;2.90;;;;;;;;;;10501951;28;20382;-82
2021/11/03 04:13:50;;;;;;;3.40;2.53;;;;;;;;;;10502351;28;20441;-82
2021/11/03 04:18:50;;;;;;;3.27;2.80;;;;;;;;;;10502134;28;20045;-81
2021/11/03 04:23:52;;;;;;;2.60;2.40;;;;;;;;;;10501475;28;20438;-81
2021/11/03 04:28:53;;;;;;;6.38;3.05;;;;;;;;;;10500966;28;20095;-82
2021/11/03 04:33:54;;;;;;;2.85;2.53;;;;;;;;;;10501592;28;20397;-82
2021/11/03 04:38:56;;;;;;;5.00;2.78;;;;;;;;;;10501561;28;20483;-82
2021/11/03 04:43:57;;;;;;;4.18;2.92;;;;;;;;;;10502510;28;20076;-82
2021/11/03 04:48:57;;;;;;;4.50;2.30;;;;;;;;;;10503710;28;20052;-81
2021/11/03 04:53:59;;;;;;;3.38;2.47;;;;;;;;;;10503540;28;20032;-81
2021/11/03 04:58:59;;;;;;;5.97;2.92;;;;;;;;;;10502372;28;20063;-82
2021/11/03 05:04:00;;;;;;;3.70;2.47;;;;;;;;;;10500542;28;20043;-82
2021/11/03 05:09:00;;;;;;;5.72;2.50;;;;;;;;;;10499912;28;20453;-81
2021/11/03 05:14:01;;;;;;;2.28;2.08;;;;;;;;;;10496697;28;20116;-81
2021/11/03 05:19:02;;;;;;;3.28;2.47;;;;;;;;;;10489670;28;20363;-82
2021/11/03 05:24:02;;;;;;;2.85;2.10;;;;;;;;;;10498948;28;20033;-82
2021/11/03 05:29:03;;;;;;;4.97;2.10;;;;;;;;;;10499350;28;20028;-82
2021/11/03 05:34:04;;;;;;;2.63;2.22;;;;;;;;;;10488665;28;20029;-81
2021/11/03 05:39:08;;;;;;;3.30;2.20;;;;;;;;;;10495724;28;20024;-81
2021/11/03 05:44:11;;;;;;;3.22;2.40;;;;;;;;;;10498174;28;20167;-81
2021/11/03 05:49:14;;;;;;;5.80;2.20;;;;;;;;;;10499021;28;20036;-81
2021/11/03 05:54:18;;;;;;;3.33;2.00;;;;;;;;;;10498796;28;20024;-81
2021/11/03 05:59:18;;;;;;;2.95;1.95;;;;;;;;;;10484125;28;20115;-80
2021/11/03 06:04:19;;;;;;;3.30;2.50;;;;;;;;;;10498294;28;20124;-81
2021/11/03 06:09:19;;;;;;;2.50;1.95;;;;;;;;;;10498335;28;20106;-81
2021/11/03 06:14:19;;;;;;;2.93;2.40;;;;;;;;;;10498039;28;20052;-81
2021/11/03 06:19:20;;;;;;;2.73;2.53;;;;;;;;;;10491214;28;20706;-81
2021/11/03 06:24:21;;;;;;;2.60;2.40;;;;;;;;;;10496873;28;20450;-81
2021/11/03 06:29:22;;;;;;;2.42;2.15;;;;;;;;;;10483041;28;20037;-81
2021/11/03 06:34:22;;;;;;;2.88;2.30;;;;;;;;;;10496620;28;20462;-82
2021/11/03 06:39:24;;;;;;;2.67;2.20;;;;;;;;;;10496916;28;20040;-82
2021/11/03 06:44:24;;;;;;;2.53;2.33;;;;;;;;;;10497180;28;20098;-81
2021/11/03 06:49:25;;;;;;;3.47;2.45;;;;;;;;;;10497326;28;20085;-83
2021/11/03 06:54:25;;;;;;;3.92;2.50;;;;;;;;;;10483674;28;20206;-81
2021/11/03 06:59:26;;;;;;;4.17;2.67;;;;;;;;;;10495434;28;20066;-88
2021/11/03 07:04:27;;;;;;;4.70;2.53;;;;;;;;;;10491463;28;20485;-87
2021/11/03 07:09:28;;;;;;;8.07;3.00;;;;;;;;;;10497057;28;20457;-90
2021/11/03 07:14:28;;;;;;;8.05;3.33;;;;;;;;;;10494894;28;20036;-89
2021/11/03 07:19:29;;;;;;;14.38;3.30;;;;;;;;;;10496079;28;20068;-89
2021/11/03 07:24:29;;;;;;;13.90;3.27;;;;;;;;;;10481614;28;20044;-89
2021/11/03 07:29:29;;;;;;;8.47;3.33;;;;;;;;;;10495927;28;20503;-88
2021/11/03 07:34:30;;;;;;;9.63;2.90;;;;;;;;;;10497495;28;20061;-88
2021/11/03 07:39:30;;;;;;;8.27;3.43;;;;;;;;;;10496875;28;20090;-88
2021/11/03 07:44:31;;;;;;;10.10;3.70;;;;;;;;;;10500890;23;20602;-90
2021/11/03 07:49:31;;;;;;;8.07;3.00;;;;;;;;;;10462105;28;20374;-89
2021/11/03 07:54:32;;;;;;;8.95;3.55;;;;;;;;;;10461602;28;20390;-89
2021/11/03 07:59:32;;;;;;;4.88;2.75;;;;;;;;;;10461220;28;20037;-89
2021/11/03 08:04:33;;;;;;;5.20;3.03;;;;;;;;;;10460612;28;20052;-89
2021/11/03 08:09:33;;;;;;;5.47;2.93;;;;;;;;;;10454625;28;20071;-89
2021/11/03 08:14:34;;;;;;;4.85;2.97;;;;;;;;;;10461567;28;20466;-89
2021/11/03 08:19:42;;;;;;;4.87;3.13;;;;;;;;;;10447149;28;20037;-89
2021/11/03 08:24:43;;;;;;;8.65;2.90;;;;;;;;;;10459738;28;20410;-89
2021/11/03 08:29:44;;;;;;;4.70;3.00;;;;;;;;;;10460360;28;20030;-89
2021/11/03 08:34:45;;;;;;;6.65;3.03;;;;;;;;;;10460462;28;20078;-87
2021/11/03 08:39:47;;;;;;;5.05;3.88;;;;;;;;;;10460992;28;20025;-88
2021/11/03 08:44:49;;;;;;;6.88;3.83;;;;;;;;;;10458346;28;20075;-88
2021/11/03 08:49:51;;;;;;;11.05;3.35;;;;;;;;;;10458910;28;20486;-88
2021/11/03 08:54:53;;;;;;;4.57;3.13;;;;;;;;;;10459512;28;20040;-89
2021/11/03 08:59:55;;;;;;;6.88;3.38;;;;;;;;;;10459049;28;20041;-89
2021/11/03 09:04:55;;;;;;;3.92;3.15;;;;;;;;;;10458821;28;20032;-89
2021/11/03 09:09:56;;;;;;;7.33;3.27;;;;;;;;;;10457987;28;20044;-88
2021/11/03 09:14:56;;;;;;;6.47;3.20;;;;;;;;;;10459056;28;20438;-89
2021/11/03 09:19:57;;;;;;;4.90;3.10;;;;;;;;;;10458975;28;20493;-89
2021/11/03 09:24:58;;;;;;;7.85;2.97;;;;;;;;;;10458050;28;20036;-89
2021/11/03 09:29:58;;;;;;;3.70;2.57;;;;;;;;;;10458027;28;20447;-89
2021/11/03 09:34:58;;;;;;;6.40;3.00;;;;;;;;;;10457305;28;20552;-89
2021/11/03 09:39:59;;;;;;;3.50;3.00;;;;;;;;;;10456380;28;20062;-89
2021/11/03 09:44:59;;;;;;;5.75;3.10;;;;;;;;;;10456957;28;20871;-88
2021/11/03 09:50:14;;;;;;;7.22;3.08;;;;;;;;;;10456057;28;20041;-87
2021/11/03 09:55:14;;;;;;;7.47;3.15;;;;;;;;;;10457432;28;20033;-88
2021/11/03 10:00:38;;;;;;;5.20;3.20;;;;;;;;;;10456166;28;20033;-87
2021/11/03 10:05:51;;;;;;;6.47;3.30;;;;;;;;;;10456534;28;20108;-88
2021/11/03 10:10:57;;;;;;;7.28;2.85;;;;;;;;;;10456136;28;20459;-89
2021/11/03 10:16:14;;;;;;;3.88;2.53;;;;;;;;;;10456707;28;20057;-89
2021/11/03 10:21:25;;;;;;;5.72;3.05;;;;;;;;;;10455998;28;20031;-88
2021/11/03 10:26:28;;;;;;;7.30;2.78;;;;;;;;;;10456858;28;20059;-90
2021/11/03 10:31:32;;;;;;;7.07;2.90;;;;;;;;;;10456139;28;20040;-89
2021/11/03 10:36:40;;;;;;;5.00;2.88;;;;;;;;;;10455207;28;20036;-89
2021/11/03 10:41:41;;;;;;;3.50;2.70;;;;;;;;;;10455505;28;20047;-89
2021/11/03 10:46:53;;;;;;;6.13;2.80;;;;;;;;;;10457209;28;20491;-89
2021/11/03 10:52:09;;;;;;;3.63;2.50;;;;;;;;;;10459488;28;20974;-88
2021/11/03 10:57:18;;;;;;;6.07;3.05;;;;;;;;;;10457658;28;20056;-89
2021/11/03 11:02:27;;;;;;;;;;;;;;;;;;10457155;28;20029;-89
2021/11/03 11:07:35;;;;;;;3.72;2.33;;;;;;;;;;10456293;28;19908;-89
2021/11/03 11:12:42;;;;;;;3.35;2.40;;;;;;;;;;10463541;28;20033;-89
2021/11/03 11:17:52;;;;;;;3.45;2.30;;;;;;;;;;10462017;28;20128;-89
2021/11/03 11:23:24;;;;;;;4.72;2.72;;;;;;;;;;10461826;28;20037;-87
2021/11/03 11:28:34;;;;;;;4.57;2.60;;;;;;;;;;10461427;28;20096;-88
2021/11/03 11:33:47;;;;;;;5.63;2.88;;;;;;;;;;10462900;28;20103;-88
2021/11/03 11:39:03;;;;;;;5.60;2.35;;;;;;;;;;10461188;28;20033;-88
2021/11/03 11:44:19;;;;;;;3.20;2.05;;;;;;;;;;10462025;28;20077;-87
2021/11/03 11:49:35;;;;;;;5.57;2.33;;;;;;;;;;10460933;28;20029;-87
2021/11/03 11:54:38;;;;;;;3.72;2.28;;;;;;;;;;10461869;28;20036;-88
2021/11/03 11:59:59;;;;;;;5.53;2.20;;;;;;;;;;10460817;28;20037;-87
2021/11/03 12:05:19;;;;;;;5.88;2.45;;;;;;;;;;10460778;28;20494;-88
2021/11/03 12:10:27;;;;;;;5.22;2.55;;;;;;;;;;10448164;28;20060;-87
2021/11/03 12:15:49;;;;;;;6.63;2.65;;;;;;;;;;10461192;28;20032;-88
2021/11/03 12:20:58;;;;;;;4.50;2.17;;;;;;;;;;10460807;28;20107;-88
2021/11/03 12:26:28;;;;;;;4.45;2.90;;;;;;;;;;10460616;28;20456;-87
2021/11/03 12:31:57;;;;;;;3.40;2.17;;;;;;;;;;10459702;28;20028;-90
2021/11/03 12:37:02;;;;;;;6.45;3.03;;;;;;;;;;10456598;28;20036;-86
2021/11/03 12:42:08;;;;;;;4.82;2.50;;;;;;;;;;10457777;28;20045;-87
2021/11/03 12:47:28;;;;;;;3.72;2.47;;;;;;;;;;10458792;28;20037;-87
2021/11/03 12:52:28;;;;;;;7.25;2.55;;;;;;;;;;10457074;28;20119;-87
2021/11/03 12:57:29;;;;;;;3.10;2.25;;;;;;;;;;10459336;28;20103;-87
2021/11/03 13:02:32;;;;;;;3.67;2.38;;;;;;;;;;10458883;28;20049;-88
2021/11/03 13:07:40;;;;;;;6.03;2.42;;;;;;;;;;10458443;28;20107;-87
2021/11/03 13:12:53;;;;;;;4.07;2.28;;;;;;;;;;10458114;28;20035;-88
2021/11/03 13:18:08;;;;;;;7.03;2.72;;;;;;;;;;10456072;28;20496;-87
2021/11/03 13:23:14;;;;;;;6.63;2.20;;;;;;;;;;10455771;28;20021;-87
2021/11/03 13:28:42;;;;;;;8.10;2.90;;;;;;;;;;10450545;28;20037;-88
2021/11/03 13:34:18;;;;;;;4.90;2.40;;;;;;;;;;10450138;28;20037;-86
2021/11/03 13:39:52;;;;;;;6.10;2.33;;;;;;;;;;10451905;28;20036;-83
2021/11/03 13:45:20;;;;;;;5.43;2.35;;;;;;;;;;10435105;28;20040;-83
2021/11/03 13:50:24;;;;;;;6.23;2.80;;;;;;;;;;10455915;28;20064;-84
2021/11/03 13:55:31;;;;;;;7.55;2.55;;;;;;;;;;10456089;28;20017;-89
2021/11/03 14:00:32;;;;;;;5.30;2.30;;;;;;;;;;10446081;28;20064;-89
2021/11/03 14:05:32;;;;;;;6.47;2.55;;;;;;;;;;10447850;28;20390;-88
2021/11/03 14:10:33;;;;;;;5.00;2.30;;;;;;;;;;10447619;28;20021;-89
2021/11/03 14:15:34;;;;;;;7.80;2.30;;;;;;;;;;10446835;28;20542;-88
2021/11/03 14:20:41;;;;;;;7.70;2.80;;;;;;;;;;10442794;28;20132;-90
2021/11/03 14:25:42;;;;;;;9.93;2.60;;;;;;;;;;10455538;28;20526;-87
2021/11/03 14:30:44;;;;;;;9.50;2.65;;;;;;;;;;10459063;28;20108;-88
2021/11/03 14:35:44;;;;;;;17.90;2.97;;;;;;;;;;10457375;28;20082;-88
2021/11/03 14:40:45;;;;;;;12.60;2.30;;;;;;;;;;10455560;28;20021;-89
2021/11/03 14:45:46;;;;;;;7.10;2.30;;;;;;;;;;10461663;28;20045;-88
2021/11/03 14:50:47;;;;;;;9.23;2.45;;;;;;;;;;10460312;28;20484;-89
2021/11/03 14:55:51;;;;;;;5.38;2.65;;;;;;;;;;10463086;28;20033;-88
2021/11/03 15:00:56;;;;;;;12.73;2.45;;;;;;;;;;10447127;28;20037;-89
2021/11/03 15:05:59;;;;;;;5.95;2.25;;;;;;;;;;10457119;28;20040;-89
2021/11/03 15:11:01;;;;;;;7.95;2.33;;;;;;;;;;10452172;28;20482;-88
2021/11/03 15:16:18;;;;;;;7.45;2.15;;;;;;;;;;10452962;28;20056;-89
2021/11/03 15:21:19;;;;;;;3.58;2.33;;;;;;;;;;10461472;28;20033;-89
2021/11/03 15:26:19;;;;;;;10.60;2.58;;;;;;;;;;10462670;28;20123;-89
2021/11/03 15:31:26;;;;;;;5.75;2.20;;;;;;;;;;10462722;28;20037;-90
2021/11/03 15:36:26;;;;;;;9.40;2.50;;;;;;;;;;10461767;28;20029;-91
2021/11/03 15:41:30;;;;;;;5.20;2.10;;;;;;;;;;10462930;28;20040;-90
2021/11/03 15:46:40;;;;;;;6.43;2.42;;;;;;;;;;10461282;28;20481;-88
2021/11/03 15:51:41;;;;;;;7.88;2.20;;;;;;;;;;10460910;28;20032;-90
2021/11/03 15:56:42;;;;;;;5.15;2.65;;;;;;;;;;10460041;28;20033;-88
2021/11/03 16:01:45;;;;;;;5.32;2.42;;;;;;;;;;10457427;28;20489;-87
2021/11/03 16:06:46;;;;;;;13.23;2.25;;;;;;;;;;10445946;28;20025;-88
2021/11/03 16:11:49;;;;;;;6.45;2.00;;;;;;;;;;10458365;28;20056;-88
2021/11/03 16:16:53;;;;;;;4.38;2.15;;;;;;;;;;10450104;28;20383;-88
2021/11/03 16:21:54;;;;;;;7.85;2.22;;;;;;;;;;10453865;28;20036;-88
2021/11/03 16:26:57;;;;;;;4.75;2.13;;;;;;;;;;10459827;28;20063;-88
2021/11/03 16:31:59;;;;;;;4.88;2.00;;;;;;;;;;10459991;28;20033;-87
2021/11/03 16:36:59;;;;;;;3.70;1.90;;;;;;;;;;10459337;28;20074;-87
2021/11/03 16:42:24;;;;;;;13.03;2.47;;;;;;;;;;10460122;28;20055;-88
2021/11/03 16:47:26;;;;;;;6.35;2.08;;;;;;;;;;10446486;28;20075;-86
2021/11/03 16:52:28;;;;;;;3.20;2.13;;;;;;;;;;10459404;28;20044;-88
2021/11/03 16:57:28;;;;;;;2.35;1.77;;;;;;;;;;10459287;28;20539;-87
2021/11/03 17:02:28;;;;;;;4.68;2.08;;;;;;;;;;10462365;28;20111;-87
2021/11/03 17:07:29;;;;;;;5.83;2.07;;;;;;;;;;10461986;28;20029;-88
2021/11/03 17:12:30;;;;;;;7.17;2.47;;;;;;;;;;10452232;28;20100;-87
2021/11/03 17:17:31;;;;;;;4.68;2.20;;;;;;;;;;10445013;28;20465;-87
2021/11/03 17:22:32;;;;;;;6.88;2.00;;;;;;;;;;10458516;28;20140;-88
2021/11/03 17:27:35;;;;;;;4.40;2.17;;;;;;;;;;10458139;28;20510;-88
2021/11/03 17:32:38;;;;;;;6.65;1.92;;;;;;;;;;10456536;28;20086;-87
2021/11/03 17:37:39;;;;;;;3.40;1.95;;;;;;;;;;10457653;28;20031;-88
2021/11/03 17:42:39;;;;;;;7.33;1.90;;;;;;;;;;10456931;28;20116;-86
2021/11/03 17:47:40;;;;;;;4.20;1.83;;;;;;;;;;10458957;28;20508;-87
2021/11/03 17:52:41;;;;;;;5.15;2.03;;;;;;;;;;10465584;28;20082;-86
2021/11/03 17:57:50;;;;;;;5.35;2.25;;;;;;;;;;10468308;28;20036;-86
2021/11/03 18:02:50;;;;;;;;;;;;;;;;;;10459596;28;20352;-84
2021/11/03 18:07:51;;;;;;;6.38;2.03;;;;;;;;;;10467189;28;19912;-84
2021/11/03 18:12:56;;;;;;;7.15;2.28;;;;;;;;;;10470956;28;20025;-84
2021/11/03 18:17:57;;;;;;;5.85;2.47;;;;;;;;;;10466350;28;20079;-84
2021/11/03 18:22:59;;;;;;;3.17;2.38;;;;;;;;;;10466194;28;20451;-85
2021/11/03 18:27:59;;;;;;;4.05;1.88;;;;;;;;;;10458367;28;20064;-84
2021/11/03 18:33:02;;;;;;;5.10;2.10;;;;;;;;;;10451972;28;20032;-85
2021/11/03 18:38:03;;;;;;;4.93;2.30;;;;;;;;;;10453296;28;20048;-84
2021/11/03 18:43:18;;;;;;;5.20;2.20;;;;;;;;;;10450031;28;20032;-84
2021/11/03 18:48:18;;;;;;;4.75;1.70;;;;;;;;;;10445967;28;20049;-84
2021/11/03 18:53:27;;;;;;;9.30;2.23;;;;;;;;;;10451654;28;20025;-85
2021/11/03 18:58:33;;;;;;;5.80;2.38;;;;;;;;;;10447879;28;20518;-84
2021/11/03 19:03:36;;;;;;;8.40;2.67;;;;;;;;;;10446487;28;20025;-85
2021/11/03 19:08:38;;;;;;;5.35;1.90;;;;;;;;;;10446324;28;20073;-84
2021/11/03 19:13:40;;;;;;;6.78;1.70;;;;;;;;;;10448397;28;20025;-85
2021/11/03 19:18:40;;;;;;;5.70;1.90;;;;;;;;;;10452871;28;20112;-83
2021/11/03 19:23:40;;;;;;;3.53;1.90;;;;;;;;;;10453920;28;20116;-83
2021/11/03 19:28:42;;;;;;;9.98;2.60;;;;;;;;;;10450401;28;20035;-83
2021/11/03 19:33:43;;;;;;;7.30;2.30;;;;;;;;;;10453577;28;20490;-84
2021/11/03 19:38:45;;;;;;;6.45;2.60;;;;;;;;;;10457827;28;20082;-86
2021/11/03 19:43:47;;;;;;;10.00;2.83;;;;;;;;;;10468441;22;20044;-87
2021/11/03 19:48:50;;;;;;;18.13;3.53;;;;;;;;;;10451202;28;20605;-87
2021/11/03 19:53:57;;;;;;;12.63;3.40;;;;;;;;;;10461036;28;20044;-87
2021/11/03 19:58:57;;;;;;;9.15;2.92;;;;;;;;;;10460683;28;20033;-86
2021/11/03 20:03:58;;;;;;;10.57;2.90;;;;;;;;;;10458529;28;20446;-86
2021/11/03 20:08:58;;;;;;;9.50;2.87;;;;;;;;;;10456382;28;20036;-86
2021/11/03 20:13:59;;;;;;;12.52;2.85;;;;;;;;;;10459887;28;20773;-85
2021/11/03 20:19:14;;;;;;;13.20;3.75;;;;;;;;;;10459013;28;20478;-87
2021/11/03 20:24:20;;;;;;;8.63;3.13;;;;;;;;;;10449015;28;20416;-87
2021/11/03 20:29:21;;;;;;;6.40;2.80;;;;;;;;;;10453109;28;20021;-84
2021/11/03 20:34:24;;;;;;;4.38;2.47;;;;;;;;;;10454842;28;20478;-84
2021/11/03 20:39:25;;;;;;;6.60;3.03;;;;;;;;;;10456751;28;20031;-84
2021/11/03 20:44:25;;;;;;;11.48;2.75;;;;;;;;;;10455020;28;20049;-84
2021/11/03 20:49:26;;;;;;;12.63;3.05;;;;;;;;;;10453150;28;20455;-85
2021/11/03 20:54:26;;;;;;;11.73;2.92;;;;;;;;;;10456461;28;20033;-85
2021/11/03 20:59:27;;;;;;;5.67;2.57;;;;;;;;;;10452854;28;20044;-84
2021/11/03 21:04:27;;;;;;;6.40;2.70;;;;;;;;;;10452530;28;20498;-84
2021/11/03 21:09:27;;;;;;;16.47;2.57;;;;;;;;;;10450521;28;20028;-84
2021/11/03 21:14:28;;;;;;;11.20;3.00;;;;;;;;;;10450769;28;20124;-85
2021/11/03 21:19:28;;;;;;;11.17;3.47;;;;;;;;;;10449331;28;20469;-86
2021/11/03 21:24:29;;;;;;;11.87;3.17;;;;;;;;;;10445837;28;20041;-86
2021/11/03 21:29:29;;;;;;;8.00;2.85;;;;;;;;;;10449004;28;20025;-87
2021/11/03 21:34:29;;;;;;;8.50;3.03;;;;;;;;;;10457353;28;20458;-87
2021/11/03 21:39:30;;;;;;;9.77;2.90;;;;;;;;;;10446305;28;20124;-86
2021/11/03 21:44:31;;;;;;;11.80;3.25;;;;;;;;;;10453635;28;20116;-86
2021/11/03 21:49:31;;;;;;;8.88;2.80;;;;;;;;;;10451641;28;20040;-86
2021/11/03 21:54:32;;;;;;;11.43;2.90;;;;;;;;;;10450513;28;20024;-86
2021/11/03 21:59:33;;;;;;;7.68;3.20;;;;;;;;;;10452659;28;20037;-88
2021/11/03 22:04:33;;;;;;;17.47;3.80;;;;;;;;;;10451736;28;20028;-86
2021/11/03 22:09:34;;;;;;;13.93;3.40;;;;;;;;;;10450856;28;20522;-87
2021/11/03 22:14:34;;;;;;;14.32;3.15;;;;;;;;;;10449536;28;20599;-87
2021/11/03 22:19:35;;;;;;;8.85;3.33;;;;;;;;;;10448605;28;20424;-87
2021/11/03 22:24:36;;;;;;;10.27;3.17;;;;;;;;;;10450950;28;20025;-87
2021/11/03 22:29:36;;;;;;;11.18;3.10;;;;;;;;;;10432405;28;20048;-88
2021/11/03 22:34:37;;;;;;;10.40;3.10;;;;;;;;;;10450458;28;20360;-85
2021/11/03 22:39:37;;;;;;;10.35;3.63;;;;;;;;;;10444806;28;20439;-85
2021/11/03 22:44:38;;;;;;;8.07;2.78;;;;;;;;;;10455153;28;20045;-85
2021/11/03 22:49:38;;;;;;;14.10;3.03;;;;;;;;;;10455073;28;20116;-85
2021/11/03 22:54:38;;;;;;;12.07;3.13;;;;;;;;;;10458362;28;20072;-84
2021/11/03 22:59:40;;;;;;;9.00;2.67;;;;;;;;;;10457190;28;20049;-85
2021/11/03 23:04:40;;;;;;;10.82;2.90;;;;;;;;;;10459670;28;20558;-85
2021/11/03 23:09:41;;;;;;;4.88;2.58;;;;;;;;;;10463258;28;20115;-86
2021/11/03 23:14:41;;;;;;;8.85;3.10;;;;;;;;;;10462942;28;20028;-84
2021/11/03 23:19:42;;;;;;;9.77;2.83;;;;;;;;;;10448565;28;20056;-85
2021/11/03 23:24:42;;;;;;;5.80;2.22;;;;;;;;;;10463382;28;20035;-85
2021/11/03 23:29:43;;;;;;;11.40;2.63;;;;;;;;;;10462096;28;20041;-84
2021/11/03 23:34:43;;;;;;;8.40;2.70;;;;;;;;;;10462590;28;20445;-83
2021/11/03 23:39:43;;;;;;;6.45;2.53;;;;;;;;;;10463040;28;20060;-83
2021/11/03 23:44:44;;;;;;;8.57;2.67;;;;;;;;;;10461096;28;20119;-85
2021/11/03 23:49:46;;;;;;;9.57;3.10;;;;;;;;;;10461746;28;20478;-83
2021/11/03 23:54:46;;;;;;;21.63;3.55;;;;;;;;;;10461109;28;20025;-83
2021/11/03 23:59:47;;;;;;;17.83;3.25;;;;;;;;;;10457022;28;20471;-84
